Time;durP1;ratioP1;P1;durP2;ratioP2;P2;SDS_P1;SDS_P2;PMS_P1;PMS_P2;Temp;Humidity;BMP_temperature;BMP_pressure;BME280_temperature;BME280_humidity;BME280_pressure;Samples;Min_cycle;Max_cycle;Signal;HPM_P1;HPM_P2
2023/12/02 00:02:17;;;;;;;35.08;15.27;;;-1.30;99.90;;;;;;5020024;28;20049;-60
2023/12/02 00:04:43;;;;;;;30.30;13.88;;;-1.10;99.90;;;;;;5018988;28;20046;-60
2023/12/02 00:07:09;;;;;;;29.73;13.38;;;-1.30;99.90;;;;;;5019991;28;20100;-61
2023/12/02 00:09:35;;;;;;;31.77;14.68;;;-1.30;99.90;;;;;;5019298;28;20475;-60
2023/12/02 00:12:01;;;;;;;33.03;15.15;;;-1.30;99.90;;;;;;5019727;28;20333;-61
2023/12/02 00:14:26;;;;;;;31.95;14.70;;;-1.20;99.90;;;;;;5019615;28;20084;-61
2023/12/02 00:16:52;;;;;;;31.13;13.73;;;-1.30;99.90;;;;;;5019227;28;20046;-61
2023/12/02 00:19:17;;;;;;;31.40;14.52;;;-1.10;99.90;;;;;;5019184;28;20042;-61
2023/12/02 00:21:43;;;;;;;32.10;13.93;;;-1.10;99.90;;;;;;5019032;28;20053;-60
2023/12/02 00:24:09;;;;;;;32.83;14.60;;;-1.10;99.90;;;;;;5019745;28;20042;-61
2023/12/02 00:26:34;;;;;;;33.47;14.68;;;-1.20;99.90;;;;;;5018963;28;20042;-61
2023/12/02 00:29:00;;;;;;;30.58;13.88;;;-1.10;99.90;;;;;;5019542;28;20573;-60
2023/12/02 00:31:26;;;;;;;30.48;13.45;;;-1.00;99.90;;;;;;5019413;28;20477;-60
2023/12/02 00:33:51;;;;;;;33.83;13.75;;;-0.90;99.90;;;;;;5019335;28;20744;-61
2023/12/02 00:36:17;;;;;;;29.88;14.13;;;-1.00;99.90;;;;;;5019452;28;20608;-60
2023/12/02 00:38:42;;;;;;;34.72;16.00;;;-1.00;99.90;;;;;;5018577;28;20112;-61
2023/12/02 00:41:10;;;;;;;33.20;14.13;;;-1.00;99.90;;;;;;5019388;28;20073;-61
2023/12/02 00:43:36;;;;;;;29.73;14.45;;;-1.10;99.90;;;;;;5018610;28;20073;-61
2023/12/02 00:46:01;;;;;;;31.60;15.45;;;-1.00;99.90;;;;;;5019047;28;20053;-61
2023/12/02 00:48:27;;;;;;;27.73;13.82;;;-1.00;99.90;;;;;;5018938;28;20053;-61
2023/12/02 00:50:53;;;;;;;32.30;15.10;;;-0.90;99.90;;;;;;5018673;28;20063;-60
2023/12/02 00:53:19;;;;;;;32.50;14.65;;;-0.90;99.90;;;;;;5018287;28;20117;-61
2023/12/02 00:55:45;;;;;;;29.55;13.60;;;-0.80;99.90;;;;;;4998743;28;20084;-61
2023/12/02 00:58:11;;;;;;;32.88;15.57;;;-0.90;99.90;;;;;;4999697;28;20038;-60
2023/12/02 01:00:37;;;;;;;29.67;13.98;;;-0.80;99.90;;;;;;4998581;28;20042;-61
2023/12/02 01:03:02;;;;;;;34.03;15.05;;;-0.80;99.90;;;;;;5018734;28;20379;-60
2023/12/02 01:05:28;;;;;;;33.95;15.07;;;-0.80;99.90;;;;;;5018905;28;20045;-61
2023/12/02 01:07:54;;;;;;;33.88;15.80;;;-0.80;99.90;;;;;;5018970;28;20065;-61
2023/12/02 01:10:19;;;;;;;32.40;15.57;;;-0.80;99.90;;;;;;5018496;28;20056;-60
2023/12/02 01:12:45;;;;;;;31.15;14.73;;;-0.80;99.90;;;;;;5018439;28;20064;-59
2023/12/02 01:15:11;;;;;;;31.98;14.35;;;-0.80;99.90;;;;;;5019193;28;20529;-61
2023/12/02 01:17:36;;;;;;;32.88;15.57;;;-0.80;99.90;;;;;;5018009;28;20046;-61
2023/12/02 01:20:02;;;;;;;31.05;13.93;;;-0.70;99.90;;;;;;5018737;28;20125;-61
2023/12/02 01:22:28;;;;;;;32.65;15.25;;;-0.80;99.90;;;;;;5018742;28;20113;-60
2023/12/02 01:24:53;;;;;;;31.15;13.80;;;-0.90;99.90;;;;;;5018474;28;20049;-60
2023/12/02 01:27:19;;;;;;;29.65;14.13;;;-0.80;99.90;;;;;;5018812;28;20034;-60
2023/12/02 01:29:44;;;;;;;28.52;14.02;;;-0.80;99.90;;;;;;5018465;28;20068;-60
2023/12/02 01:32:10;;;;;;;32.42;15.27;;;-0.80;99.90;;;;;;5020457;28;20410;-60
2023/12/02 01:34:39;;;;;;;32.17;14.77;;;-0.80;99.90;;;;;;5021840;28;20045;-61
2023/12/02 01:37:04;;;;;;;32.28;14.75;;;-0.90;99.90;;;;;;5022924;28;20096;-61
2023/12/02 01:39:30;;;;;;;30.58;14.52;;;-0.90;99.90;;;;;;5022085;28;20050;-60
2023/12/02 01:41:55;;;;;;;28.65;14.63;;;-0.80;99.90;;;;;;5022796;28;20456;-61
2023/12/02 01:44:21;;;;;;;30.42;14.98;;;-0.90;99.90;;;;;;5022393;28;20124;-60
2023/12/02 01:46:47;;;;;;;28.73;14.43;;;-0.90;99.90;;;;;;5022163;28;20118;-61
2023/12/02 01:49:13;;;;;;;28.73;13.30;;;-0.90;99.90;;;;;;5022535;28;20026;-61
2023/12/02 01:51:39;;;;;;;27.65;12.73;;;-0.90;99.90;;;;;;5021632;28;20038;-60
2023/12/02 01:54:05;;;;;;;27.17;13.05;;;-0.80;99.90;;;;;;5022231;28;20041;-60
2023/12/02 01:56:30;;;;;;;30.58;13.82;;;-0.80;99.90;;;;;;5021795;28;20041;-60
2023/12/02 01:58:57;;;;;;;29.05;14.00;;;-0.80;99.90;;;;;;5022398;28;20056;-60
2023/12/02 02:01:22;;;;;;;27.67;13.52;;;-0.90;99.90;;;;;;5022116;28;20057;-61
2023/12/02 02:03:49;;;;;;;32.40;14.88;;;-0.90;99.90;;;;;;5004178;28;20054;-61
2023/12/02 02:06:15;;;;;;;32.28;13.98;;;-0.90;99.90;;;;;;5022079;28;20046;-61
2023/12/02 02:08:41;;;;;;;29.00;13.18;;;-1.00;99.90;;;;;;5021224;28;20057;-61
2023/12/02 02:11:07;;;;;;;32.53;14.85;;;-0.80;99.90;;;;;;5004669;28;20038;-60
2023/12/02 02:13:33;;;;;;;29.92;14.10;;;-0.90;99.90;;;;;;5021456;28;20096;-61
2023/12/02 02:15:59;;;;;;;32.63;13.82;;;-0.90;99.90;;;;;;5021737;28;20053;-61
2023/12/02 02:18:25;;;;;;;29.23;12.95;;;-0.80;99.90;;;;;;5021996;28;20042;-60
2023/12/02 02:20:51;;;;;;;29.38;12.73;;;-0.90;99.90;;;;;;5021677;28;20510;-61
2023/12/02 02:23:18;;;;;;;30.60;13.10;;;-0.90;99.90;;;;;;5021916;28;20041;-60
2023/12/02 02:25:44;;;;;;;27.20;12.88;;;-0.90;99.90;;;;;;5003367;28;20052;-61
2023/12/02 02:28:10;;;;;;;28.25;13.45;;;-0.90;99.90;;;;;;5021932;28;20074;-61
2023/12/02 02:30:36;;;;;;;30.58;14.00;;;-0.90;99.90;;;;;;5020911;28;20045;-60
2023/12/02 02:33:02;;;;;;;30.48;13.55;;;-0.90;99.90;;;;;;5021730;28;20498;-61
2023/12/02 02:35:27;;;;;;;29.38;13.32;;;-0.90;99.90;;;;;;5021106;28;20042;-61
2023/12/02 02:37:53;;;;;;;30.10;13.57;;;-0.90;99.90;;;;;;5021350;28;20096;-60
2023/12/02 02:40:19;;;;;;;27.42;13.07;;;-1.00;99.90;;;;;;5021503;28;20049;-60
2023/12/02 02:42:45;;;;;;;28.65;13.95;;;-1.00;99.90;;;;;;5020743;28;20049;-60
2023/12/02 02:45:11;;;;;;;26.98;13.15;;;-1.00;99.90;;;;;;5021538;28;20050;-61
2023/12/02 02:47:37;;;;;;;27.40;12.65;;;-1.10;99.90;;;;;;5020214;28;20073;-61
2023/12/02 02:50:03;;;;;;;27.92;13.73;;;-1.00;99.90;;;;;;5021132;28;20068;-61
2023/12/02 02:52:28;;;;;;;29.27;12.50;;;-1.00;99.90;;;;;;5021024;28;20045;-61
2023/12/02 02:54:54;;;;;;;26.50;13.00;;;-1.10;99.90;;;;;;5007001;28;20395;-61
2023/12/02 02:57:20;;;;;;;25.70;12.45;;;-1.10;99.90;;;;;;5001698;28;20414;-61
2023/12/02 02:59:46;;;;;;;30.02;13.27;;;-1.10;99.90;;;;;;5001437;28;20457;-61
2023/12/02 03:02:11;;;;;;;28.25;13.40;;;-1.10;99.90;;;;;;5001544;28;20647;-60
2023/12/02 03:04:37;;;;;;;29.45;14.00;;;-1.10;99.90;;;;;;5000656;28;20046;-60
2023/12/02 03:07:03;;;;;;;30.40;13.98;;;-1.10;99.90;;;;;;5001328;28;20058;-58
2023/12/02 03:09:28;;;;;;;27.17;12.63;;;-1.10;99.90;;;;;;5001106;28;20042;-60
2023/12/02 03:11:54;;;;;;;24.90;13.05;;;-1.10;99.90;;;;;;5001052;28;20042;-61
2023/12/02 03:14:19;;;;;;;27.92;13.00;;;-1.10;99.90;;;;;;5001293;28;20065;-61
2023/12/02 03:16:45;;;;;;;30.60;14.35;;;-1.20;99.90;;;;;;5000543;28;20042;-61
2023/12/02 03:19:11;;;;;;;30.48;13.68;;;-1.10;99.90;;;;;;5001403;28;20043;-61
2023/12/02 03:21:36;;;;;;;27.63;12.60;;;-1.20;99.90;;;;;;5000250;28;20045;-61
2023/12/02 03:24:02;;;;;;;30.50;13.95;;;-1.20;99.90;;;;;;5001483;28;20046;-61
2023/12/02 03:26:28;;;;;;;27.35;13.25;;;-1.20;99.90;;;;;;5000520;28;20039;-61
2023/12/02 03:28:54;;;;;;;32.05;14.35;;;-1.40;99.90;;;;;;5001108;28;20064;-60
2023/12/02 03:31:19;;;;;;;30.35;14.60;;;-1.30;99.90;;;;;;5000755;28;20042;-60
2023/12/02 03:33:45;;;;;;;26.42;13.48;;;-1.20;99.90;;;;;;5000704;28;20050;-60
2023/12/02 03:36:11;;;;;;;27.35;13.48;;;-1.20;99.90;;;;;;5000579;28;20552;-60
2023/12/02 03:38:38;;;;;;;27.40;13.55;;;-1.30;99.90;;;;;;5015331;28;20125;-60
2023/12/02 03:41:04;;;;;;;29.65;13.65;;;-1.20;99.90;;;;;;5020425;28;20671;-60
2023/12/02 03:43:29;;;;;;;36.00;15.55;;;-1.30;99.90;;;;;;5019615;28;20042;-60
2023/12/02 03:45:55;;;;;;;27.88;13.13;;;-1.20;99.90;;;;;;5020112;28;20042;-61
2023/12/02 03:48:21;;;;;;;30.63;14.85;;;-1.30;99.90;;;;;;5001893;28;20068;-60
2023/12/02 03:50:47;;;;;;;32.70;14.55;;;-1.20;99.90;;;;;;5019515;28;20049;-60
2023/12/02 03:53:12;;;;;;;28.05;13.75;;;-1.10;99.90;;;;;;5020153;28;20108;-61
2023/12/02 03:55:38;;;;;;;29.98;14.02;;;-1.30;99.90;;;;;;5018935;28;20037;-60
2023/12/02 03:58:04;;;;;;;30.10;14.48;;;-1.30;99.90;;;;;;5020114;28;20041;-60
2023/12/02 04:00:30;;;;;;;30.15;14.38;;;-1.40;99.90;;;;;;5019595;28;20677;-61
2023/12/02 04:02:55;;;;;;;30.70;14.52;;;-1.40;99.90;;;;;;5019944;28;20050;-60
2023/12/02 04:05:21;;;;;;;30.38;13.85;;;-1.40;99.90;;;;;;5004722;28;20726;-61
2023/12/02 04:07:47;;;;;;;32.08;14.93;;;-1.40;99.90;;;;;;5000011;28;20543;-60
2023/12/02 04:10:12;;;;;;;28.15;13.45;;;-1.40;99.90;;;;;;5000164;28;20057;-61
2023/12/02 04:12:38;;;;;;;30.52;14.80;;;-1.50;99.90;;;;;;4999734;28;20047;-60
2023/12/02 04:15:06;;;;;;;32.63;14.13;;;-1.50;99.90;;;;;;5000297;28;20082;-61
2023/12/02 04:17:32;;;;;;;30.92;13.95;;;-1.50;99.90;;;;;;4998887;28;20499;-60
2023/12/02 04:19:58;;;;;;;31.02;15.50;;;-1.60;99.90;;;;;;5000145;28;20492;-60
2023/12/02 04:22:24;;;;;;;33.72;14.75;;;-1.60;99.90;;;;;;4999571;28;20121;-60
2023/12/02 04:24:50;;;;;;;29.40;13.73;;;-1.50;99.90;;;;;;4999727;28;20038;-60
2023/12/02 04:27:16;;;;;;;31.58;14.38;;;-1.50;99.90;;;;;;4999948;28;20049;-60
2023/12/02 04:29:42;;;;;;;29.83;14.45;;;-1.50;99.90;;;;;;4999517;28;20058;-60
2023/12/02 04:32:10;;;;;;;32.95;14.75;;;-1.40;99.90;;;;;;4999917;28;20089;-60
2023/12/02 04:34:36;;;;;;;31.52;14.88;;;-1.40;99.90;;;;;;4998902;28;20056;-60
2023/12/02 04:37:02;;;;;;;34.30;14.90;;;-1.40;99.90;;;;;;4999724;28;20062;-60
2023/12/02 04:39:31;;;;;;;29.35;14.13;;;-1.40;99.90;;;;;;4999290;28;20046;-60
2023/12/02 04:41:56;;;;;;;31.35;14.82;;;-1.40;99.90;;;;;;4999553;28;20073;-61
2023/12/02 04:44:22;;;;;;;36.42;14.65;;;-1.30;99.90;;;;;;4982148;28;20058;-60
2023/12/02 04:46:48;;;;;;;33.03;14.95;;;-1.30;99.90;;;;;;4999020;28;20106;-60
2023/12/02 04:49:13;;;;;;;32.30;15.85;;;-1.30;99.90;;;;;;4999487;28;20043;-60
2023/12/02 04:51:39;;;;;;;30.45;14.55;;;-1.30;99.90;;;;;;4999020;28;20050;-60
2023/12/02 04:54:05;;;;;;;34.00;15.32;;;-1.30;99.90;;;;;;5006990;28;20049;-61
2023/12/02 04:56:30;;;;;;;32.70;14.45;;;-1.30;99.90;;;;;;5018157;28;20045;-61
2023/12/02 04:58:56;;;;;;;27.40;14.60;;;-1.30;99.90;;;;;;5019117;28;20100;-60
2023/12/02 05:01:22;;;;;;;33.40;15.15;;;-1.30;99.90;;;;;;5019203;28;20065;-60
2023/12/02 05:03:48;;;;;;;34.08;14.88;;;-1.30;99.90;;;;;;5019063;28;20042;-60
2023/12/02 05:06:15;;;;;;;31.15;13.93;;;-1.30;99.90;;;;;;5001650;28;20045;-60
2023/12/02 05:08:41;;;;;;;29.20;14.40;;;-1.20;99.90;;;;;;5018350;28;20528;-60
2023/12/02 05:11:07;;;;;;;32.15;14.45;;;-1.30;99.90;;;;;;5019324;28;20053;-60
2023/12/02 05:13:33;;;;;;;32.03;15.48;;;-1.30;99.90;;;;;;5018419;28;20045;-60
2023/12/02 05:15:58;;;;;;;30.92;14.25;;;-1.20;99.90;;;;;;5018814;28;20065;-60
2023/12/02 05:18:24;;;;;;;29.33;14.05;;;-1.30;99.90;;;;;;5018801;28;20038;-60
2023/12/02 05:20:50;;;;;;;31.30;14.95;;;-1.40;99.90;;;;;;5018822;28;20042;-61
2023/12/02 05:23:15;;;;;;;31.33;15.13;;;-1.40;99.90;;;;;;5019009;28;20042;-60
2023/12/02 05:25:41;;;;;;;31.63;13.55;;;-1.50;99.90;;;;;;5018265;28;20129;-61
2023/12/02 05:28:07;;;;;;;31.10;14.32;;;-1.40;99.90;;;;;;5001497;28;20038;-60
2023/12/02 05:30:36;;;;;;;31.23;14.82;;;-1.40;99.90;;;;;;5018083;28;20162;-61
2023/12/02 05:33:01;;;;;;;31.67;14.40;;;-1.30;99.90;;;;;;5018562;28;20498;-61
2023/12/02 05:35:27;;;;;;;30.02;14.13;;;-1.40;99.90;;;;;;5018641;28;20053;-61
2023/12/02 05:37:53;;;;;;;30.90;14.23;;;-1.30;99.90;;;;;;5000877;28;20081;-60
2023/12/02 05:40:18;;;;;;;31.15;14.57;;;-1.30;99.90;;;;;;5018963;28;20046;-60
2023/12/02 05:42:44;;;;;;;33.38;15.27;;;-1.30;99.90;;;;;;5018107;28;20046;-58
2023/12/02 05:45:10;;;;;;;31.20;14.32;;;-1.20;99.90;;;;;;5018561;28;20042;-60
2023/12/02 05:47:36;;;;;;;32.45;14.73;;;-1.30;99.90;;;;;;5017808;28;20074;-59
2023/12/02 05:50:02;;;;;;;29.27;13.38;;;-1.30;99.90;;;;;;5018395;28;20512;-61
2023/12/02 05:52:28;;;;;;;31.35;14.13;;;-1.30;99.90;;;;;;5018500;28;20053;-60
2023/12/02 05:54:55;;;;;;;29.70;13.73;;;-1.30;99.90;;;;;;5004248;28;20049;-60
2023/12/02 05:57:20;;;;;;;33.03;14.15;;;-1.20;99.90;;;;;;5009244;28;20060;-59
2023/12/02 05:59:46;;;;;;;34.75;13.70;;;-1.20;99.90;;;;;;5017819;28;20038;-61
2023/12/02 06:02:12;;;;;;;30.30;13.98;;;-1.20;99.90;;;;;;5018788;28;20107;-60
2023/12/02 06:04:37;;;;;;;27.67;13.23;;;-1.10;99.90;;;;;;5017646;28;20170;-61
2023/12/02 06:07:03;;;;;;;32.45;14.63;;;-1.20;99.90;;;;;;5018676;28;20042;-60
2023/12/02 06:09:29;;;;;;;31.30;14.43;;;-1.20;99.90;;;;;;5018074;28;20050;-61
2023/12/02 06:11:55;;;;;;;29.15;14.23;;;-1.20;99.90;;;;;;5018336;28;20034;-61
2023/12/02 06:14:20;;;;;;;31.02;14.80;;;-1.20;99.90;;;;;;5018103;28;20042;-60
2023/12/02 06:16:46;;;;;;;33.33;15.15;;;-1.20;99.90;;;;;;5017683;28;20042;-60
2023/12/02 06:19:12;;;;;;;32.42;13.85;;;-1.10;99.90;;;;;;5021373;28;20037;-61
2023/12/02 06:21:37;;;;;;;29.05;14.63;;;-1.20;99.90;;;;;;5021161;28;20545;-60
2023/12/02 06:24:04;;;;;;;31.83;14.32;;;-1.20;99.90;;;;;;5021848;28;20037;-60
2023/12/02 06:26:29;;;;;;;31.52;14.65;;;-1.20;99.90;;;;;;5021483;28;20100;-61
2023/12/02 06:28:55;;;;;;;31.60;14.00;;;-1.30;99.90;;;;;;5021473;28;20493;-60
2023/12/02 06:31:21;;;;;;;30.05;13.88;;;-1.30;99.90;;;;;;5021661;28;20046;-60
2023/12/02 06:33:47;;;;;;;30.95;13.45;;;-1.20;99.90;;;;;;5021263;28;20041;-60
2023/12/02 06:36:13;;;;;;;31.58;15.23;;;-1.30;99.90;;;;;;5021677;28;20053;-60
2023/12/02 06:38:38;;;;;;;27.35;13.27;;;-1.40;99.90;;;;;;5020929;28;20041;-60
2023/12/02 06:41:04;;;;;;;31.77;15.25;;;-1.30;99.90;;;;;;5021696;28;20050;-60
2023/12/02 06:43:30;;;;;;;30.17;13.60;;;-1.30;99.90;;;;;;5017672;28;20076;-60
2023/12/02 06:45:56;;;;;;;33.38;15.25;;;-1.20;99.90;;;;;;4999578;28;20041;-60
2023/12/02 06:48:21;;;;;;;30.90;14.20;;;-1.20;99.90;;;;;;5017561;28;20053;-59
2023/12/02 06:50:47;;;;;;;29.55;13.98;;;-1.20;99.90;;;;;;5016873;28;20061;-60
2023/12/02 06:53:15;;;;;;;31.60;15.35;;;-1.20;99.90;;;;;;5017540;28;20125;-60
2023/12/02 06:55:44;;;;;;;28.05;13.75;;;-1.20;99.90;;;;;;5016269;28;20088;-60
2023/12/02 06:58:10;;;;;;;30.67;15.07;;;-1.20;99.90;;;;;;5017418;28;20046;-60
2023/12/02 07:00:36;;;;;;;31.75;15.48;;;-1.20;99.90;;;;;;5016655;28;20056;-60
2023/12/02 07:03:01;;;;;;;31.65;14.98;;;-1.20;99.90;;;;;;5017287;28;20082;-60
2023/12/02 07:05:27;;;;;;;32.90;15.18;;;-1.20;99.90;;;;;;5017042;28;20045;-60
2023/12/02 07:07:52;;;;;;;29.70;14.27;;;-1.20;99.90;;;;;;5017015;28;20501;-60
2023/12/02 07:10:18;;;;;;;33.70;15.75;;;-1.20;99.90;;;;;;5017327;28;20536;-60
2023/12/02 07:12:44;;;;;;;32.88;15.07;;;-1.20;99.90;;;;;;5016358;28;20048;-60
2023/12/02 07:15:10;;;;;;;34.40;16.63;;;-1.20;99.90;;;;;;5017368;28;20056;-60
2023/12/02 07:17:36;;;;;;;30.90;14.88;;;-1.30;99.90;;;;;;5007116;28;20484;-60
2023/12/02 07:20:02;;;;;;;31.02;14.68;;;-1.20;99.90;;;;;;4991018;28;20092;-60
2023/12/02 07:22:28;;;;;;;32.03;14.55;;;-1.30;99.90;;;;;;4999185;28;20046;-60
2023/12/02 07:24:54;;;;;;;27.98;13.82;;;-1.30;99.90;;;;;;4997285;28;20794;-59
2023/12/02 07:27:20;;;;;;;27.50;13.82;;;-1.30;99.90;;;;;;4997278;28;20081;-60
2023/12/02 07:29:45;;;;;;;32.85;15.00;;;-1.30;99.90;;;;;;4995596;28;20046;-59
2023/12/02 07:32:11;;;;;;;31.80;14.10;;;-1.30;99.90;;;;;;4997025;28;20051;-60
2023/12/02 07:34:37;;;;;;;28.83;14.00;;;-1.20;99.90;;;;;;4996385;28;20046;-60
2023/12/02 07:37:03;;;;;;;30.30;14.32;;;-1.20;99.90;;;;;;4996829;28;20046;-60
2023/12/02 07:39:29;;;;;;;31.75;15.13;;;-1.20;99.90;;;;;;4996811;28;20089;-60
2023/12/02 07:41:55;;;;;;;27.17;13.95;;;-1.20;99.90;;;;;;4996424;28;20050;-60
2023/12/02 07:44:21;;;;;;;29.25;14.02;;;-1.20;99.90;;;;;;4996505;28;20065;-60
2023/12/02 07:46:46;;;;;;;29.40;13.35;;;-1.10;99.90;;;;;;4996262;28;20049;-60
2023/12/02 07:49:15;;;;;;;30.00;13.90;;;-1.10;99.90;;;;;;4979128;28;20059;-60
2023/12/02 07:51:40;;;;;;;29.25;15.25;;;-1.10;99.90;;;;;;4995512;28;20062;-60
2023/12/02 07:54:06;;;;;;;30.95;14.05;;;-1.10;99.90;;;;;;5004593;28;20405;-60
2023/12/02 07:56:32;;;;;;;30.98;14.15;;;-1.10;99.90;;;;;;5015461;28;20042;-60
2023/12/02 07:58:57;;;;;;;29.63;13.85;;;-1.00;99.90;;;;;;5016156;28;20415;-60
2023/12/02 08:01:24;;;;;;;30.80;14.88;;;-1.00;99.90;;;;;;5016259;28;20064;-60
2023/12/02 08:03:49;;;;;;;31.50;13.48;;;-1.10;99.90;;;;;;5015800;28;20049;-60
2023/12/02 08:06:15;;;;;;;32.28;15.15;;;-1.00;99.90;;;;;;5016325;28;20518;-60
2023/12/02 08:08:41;;;;;;;32.17;14.68;;;-1.00;99.90;;;;;;5015050;28;20069;-62
2023/12/02 08:11:07;;;;;;;34.15;15.40;;;-1.00;99.90;;;;;;4998140;28;20062;-61
2023/12/02 08:13:32;;;;;;;32.13;15.18;;;-1.00;99.90;;;;;;5015429;28;20050;-60
2023/12/02 08:15:58;;;;;;;34.78;15.48;;;-0.80;99.90;;;;;;5015653;28;20077;-60
2023/12/02 08:18:24;;;;;;;30.20;14.98;;;-0.80;99.90;;;;;;5015752;28;20056;-60
2023/12/02 08:20:49;;;;;;;27.33;13.65;;;-0.70;99.90;;;;;;5015268;28;20049;-60
2023/12/02 08:23:15;;;;;;;29.67;13.70;;;-0.80;99.90;;;;;;5016122;28;20045;-60
2023/12/02 08:25:41;;;;;;;30.08;13.73;;;-0.80;99.90;;;;;;4996888;28;20057;-60
2023/12/02 08:28:07;;;;;;;29.35;14.52;;;-0.70;99.90;;;;;;5011925;28;20241;-60
2023/12/02 08:30:33;;;;;;;32.80;15.68;;;-0.80;99.90;;;;;;5004583;28;20050;-60
2023/12/02 08:32:58;;;;;;;33.35;14.63;;;-0.80;99.90;;;;;;5003503;28;20522;-60
2023/12/02 08:35:24;;;;;;;32.15;14.73;;;-0.70;99.90;;;;;;5011872;28;20050;-60
2023/12/02 08:37:50;;;;;;;32.47;15.98;;;-0.60;99.90;;;;;;5015247;28;20128;-60
2023/12/02 08:40:15;;;;;;;30.08;13.40;;;-0.70;99.90;;;;;;5014986;28;20038;-60
2023/12/02 08:42:41;;;;;;;31.90;14.07;;;-0.60;99.90;;;;;;5014316;28;20156;-60
2023/12/02 08:45:07;;;;;;;30.20;13.90;;;-0.60;99.90;;;;;;5016048;28;20100;-60
2023/12/02 08:47:33;;;;;;;32.22;15.63;;;-0.50;99.90;;;;;;5014444;28;20042;-61
2023/12/02 08:49:58;;;;;;;29.73;14.70;;;-0.70;99.90;;;;;;5015001;28;20054;-60
2023/12/02 08:52:24;;;;;;;29.65;14.35;;;-0.80;99.90;;;;;;5006053;28;20074;-60
2023/12/02 08:54:50;;;;;;;29.35;14.02;;;-0.80;99.90;;;;;;5009514;28;20088;-60
2023/12/02 08:57:15;;;;;;;34.05;15.77;;;-0.60;99.90;;;;;;4997792;28;20092;-60
2023/12/02 08:59:41;;;;;;;32.85;14.80;;;-0.60;99.90;;;;;;5014957;28;20038;-61
2023/12/02 09:02:10;;;;;;;29.88;14.20;;;-0.70;99.90;;;;;;5015327;28;20046;-60
2023/12/02 09:04:36;;;;;;;32.90;15.23;;;-0.70;99.90;;;;;;4996378;28;20049;-60
2023/12/02 09:07:02;;;;;;;29.30;14.32;;;-0.60;99.90;;;;;;5014866;28;20046;-60
2023/12/02 09:09:28;;;;;;;32.28;15.00;;;-0.60;99.90;;;;;;5014771;28;20037;-60
2023/12/02 09:11:54;;;;;;;30.70;15.02;;;-0.60;99.90;;;;;;5014974;28;20046;-60
2023/12/02 09:14:20;;;;;;;26.08;13.63;;;-0.60;99.90;;;;;;4997413;28;20068;-59
2023/12/02 09:16:50;;;;;;;29.40;13.10;;;-0.50;99.90;;;;;;4996410;28;20057;-60
2023/12/02 09:19:52;;;;;;;32.53;14.80;;;-0.50;99.90;;;;;;5015014;28;20038;-60
2023/12/02 09:22:43;;;;;;;29.23;13.38;;;-0.30;99.90;;;;;;5007637;28;20094;-60
2023/12/02 09:25:11;;;;;;;31.23;13.35;;;-0.30;99.90;;;;;;5003019;28;20068;-60
2023/12/02 09:28:06;;;;;;;30.88;13.93;;;-0.20;99.90;;;;;;4999264;28;20047;-60
2023/12/02 09:30:48;;;;;;;27.52;13.27;;;-0.10;99.90;;;;;;4994405;28;20055;-60
2023/12/02 09:33:14;;;;;;;27.77;13.82;;;0.00;99.90;;;;;;4994901;28;20456;-60
2023/12/02 09:35:40;;;;;;;29.80;13.93;;;-0.10;99.90;;;;;;4995151;28;20057;-60
2023/12/02 09:38:05;;;;;;;24.98;12.82;;;-0.10;99.90;;;;;;4977618;28;20104;-60
2023/12/02 09:40:55;;;;;;;31.60;13.85;;;0.00;99.90;;;;;;4997475;28;20084;-60
2023/12/02 09:43:35;;;;;;;34.53;15.90;;;0.10;99.90;;;;;;5003831;28;20046;-60
2023/12/02 09:46:04;;;;;;;34.88;15.85;;;0.20;99.90;;;;;;5005084;28;20852;-61
2023/12/02 09:48:43;;;;;;;36.05;17.02;;;0.20;99.90;;;;;;5012398;28;20080;-60
2023/12/02 09:51:17;;;;;;;31.45;15.85;;;0.20;99.90;;;;;;5013813;28;20137;-60
2023/12/02 09:54:14;;;;;;;30.67;14.07;;;0.30;99.90;;;;;;5012629;28;20597;-60
2023/12/02 09:56:52;;;;;;;28.27;13.20;;;0.30;99.90;;;;;;4998162;28;20086;-60
2023/12/02 09:59:36;;;;;;;29.20;12.80;;;0.30;99.90;;;;;;4997951;28;20094;-60
2023/12/02 10:02:25;;;;;;;25.65;12.57;;;0.40;99.90;;;;;;4998577;28;20570;-60
2023/12/02 10:05:17;;;;;;;27.23;12.52;;;0.50;99.90;;;;;;4998096;28;20089;-60
2023/12/02 10:08:03;;;;;;;23.50;12.63;;;0.50;99.90;;;;;;4996854;28;20544;-60
2023/12/02 10:11:00;;;;;;;28.92;12.98;;;0.50;99.90;;;;;;4998600;28;20073;-60
2023/12/02 10:13:42;;;;;;;28.52;12.30;;;0.60;99.90;;;;;;5003019;28;20161;-60
2023/12/02 10:16:14;;;;;;;23.88;11.95;;;0.60;99.90;;;;;;5007323;28;20038;-60
2023/12/02 10:18:51;;;;;;;27.02;12.85;;;0.50;99.90;;;;;;5012156;28;20048;-60
2023/12/02 10:21:20;;;;;;;27.92;12.63;;;0.60;99.90;;;;;;5016997;28;20422;-60
2023/12/02 10:23:55;;;;;;;25.23;12.57;;;0.50;99.90;;;;;;5019252;28;20106;-60
2023/12/02 10:26:46;;;;;;;24.50;12.70;;;0.70;99.90;;;;;;5019839;28;20506;-60
2023/12/02 10:29:22;;;;;;;27.75;12.73;;;0.70;99.90;;;;;;5021146;28;20050;-60
2023/12/02 10:32:25;;;;;;;27.27;13.15;;;0.70;99.90;;;;;;5021457;28;20053;-60
2023/12/02 10:34:57;;;;;;;;;;;0.70;99.90;;;;;;5021469;28;20037;-60
2023/12/02 10:37:33;;;;;;;26.15;11.15;;;0.70;99.90;;;;;;5020761;28;19921;-61
2023/12/02 10:40:06;;;;;;;22.77;11.82;;;0.70;99.90;;;;;;5021402;28;20061;-60
2023/12/02 10:43:02;;;;;;;27.40;12.18;;;0.80;99.90;;;;;;5020846;28;20108;-60
2023/12/02 10:45:30;;;;;;;28.15;13.63;;;0.90;99.90;;;;;;5021167;28;20046;-60
2023/12/02 10:47:58;;;;;;;27.42;12.13;;;1.00;99.90;;;;;;5021074;28;20034;-60
2023/12/02 10:50:25;;;;;;;22.60;11.05;;;1.00;99.90;;;;;;5021032;28;20050;-60
2023/12/02 10:53:01;;;;;;;25.80;12.82;;;1.00;99.90;;;;;;5020594;28;20046;-60
2023/12/02 10:55:31;;;;;;;25.73;12.30;;;0.90;99.90;;;;;;5002063;28;20081;-60
2023/12/02 10:57:58;;;;;;;23.45;11.68;;;0.80;99.90;;;;;;5001519;28;20077;-61
2023/12/02 11:00:27;;;;;;;23.70;12.00;;;0.80;99.90;;;;;;5000646;28;20042;-60
2023/12/02 11:03:06;;;;;;;24.52;12.57;;;0.90;99.90;;;;;;5001350;28;20038;-61
2023/12/02 11:05:45;;;;;;;23.77;11.40;;;0.80;99.90;;;;;;5000858;28;20098;-60
2023/12/02 11:08:19;;;;;;;22.90;10.73;;;0.70;99.90;;;;;;5000520;28;20057;-60
2023/12/02 11:10:52;;;;;;;23.35;11.43;;;0.80;99.90;;;;;;5001127;28;20046;-60
2023/12/02 11:13:23;;;;;;;20.85;10.30;;;0.90;99.90;;;;;;5000393;28;20065;-60
2023/12/02 11:16:09;;;;;;;23.67;10.80;;;0.90;99.90;;;;;;5000776;28;20056;-61
2023/12/02 11:18:50;;;;;;;19.98;10.05;;;0.90;99.90;;;;;;5000939;28;20110;-60
2023/12/02 11:21:50;;;;;;;23.80;11.05;;;0.80;99.90;;;;;;4999769;28;20074;-61
2023/12/02 11:24:35;;;;;;;24.50;9.90;;;1.00;99.90;;;;;;4930573;28;20063;-61
2023/12/02 11:27:24;;;;;;;20.20;9.27;;;0.90;99.90;;;;;;5000517;28;20343;-60
2023/12/02 11:30:02;;;;;;;23.48;10.90;;;0.90;99.90;;;;;;4999607;28;20042;-60
2023/12/02 11:32:33;;;;;;;20.83;11.15;;;1.00;99.90;;;;;;5000355;28;20123;-61
2023/12/02 11:35:16;;;;;;;21.10;10.33;;;1.00;99.90;;;;;;4999751;28;20065;-60
2023/12/02 11:37:54;;;;;;;;;;;1.20;99.90;;;;;;5000297;28;20053;-60
2023/12/02 11:40:26;;;;;;;24.55;10.90;;;1.30;99.90;;;;;;4999913;28;19921;-60
2023/12/02 11:42:58;;;;;;;28.40;13.80;;;1.20;99.90;;;;;;5011828;28;20090;-60
2023/12/02 11:45:33;;;;;;;26.48;12.07;;;1.30;99.90;;;;;;5019131;28;20054;-60
2023/12/02 11:48:10;;;;;;;26.98;13.20;;;1.40;99.90;;;;;;5019505;28;20056;-61
2023/12/02 11:50:55;;;;;;;27.75;12.55;;;1.60;99.90;;;;;;5018844;28;20132;-63
2023/12/02 11:53:39;;;;;;;24.92;11.75;;;1.40;99.90;;;;;;5019366;28;20069;-61
2023/12/02 11:56:12;;;;;;;20.02;9.43;;;1.30;99.90;;;;;;5018724;28;20053;-61
2023/12/02 11:58:53;;;;;;;18.25;9.02;;;1.40;99.90;;;;;;5019338;28;20198;-61
2023/12/02 12:01:56;;;;;;;17.10;8.30;;;1.40;99.90;;;;;;5019114;28;20038;-60
2023/12/02 12:04:40;;;;;;;26.30;12.85;;;1.40;99.90;;;;;;4978743;28;20043;-60
2023/12/02 12:07:12;;;;;;;20.02;10.95;;;1.40;99.90;;;;;;4979602;28;20051;-60
2023/12/02 12:09:42;;;;;;;23.05;10.80;;;1.40;99.90;;;;;;4980331;28;20423;-60
2023/12/02 12:12:10;;;;;;;17.80;9.10;;;1.30;99.90;;;;;;4980234;28;20050;-60
2023/12/02 12:14:39;;;;;;;19.30;9.13;;;1.40;99.90;;;;;;4963982;28;20046;-61
2023/12/02 12:17:05;;;;;;;18.95;9.13;;;1.40;99.90;;;;;;4985336;28;20062;-60
2023/12/02 12:19:30;;;;;;;14.70;7.72;;;1.40;99.90;;;;;;4980346;28;20050;-62
2023/12/02 12:21:56;;;;;;;18.13;8.52;;;1.50;99.90;;;;;;4990311;28;20110;-61
2023/12/02 12:24:22;;;;;;;16.50;8.13;;;1.40;99.90;;;;;;4995421;28;20120;-62
2023/12/02 12:26:48;;;;;;;17.85;8.55;;;1.60;99.90;;;;;;4980878;28;20074;-61
2023/12/02 12:29:15;;;;;;;18.20;8.65;;;1.60;99.90;;;;;;4979738;28;20073;-61
2023/12/02 12:31:44;;;;;;;16.50;8.00;;;1.50;99.90;;;;;;4980016;28;20081;-60
2023/12/02 12:34:14;;;;;;;14.65;7.97;;;1.50;99.90;;;;;;4979307;28;20051;-61
2023/12/02 12:36:41;;;;;;;14.02;6.82;;;1.50;99.90;;;;;;4980371;28;20034;-61
2023/12/02 12:39:07;;;;;;;16.42;7.95;;;1.50;99.90;;;;;;4979931;28;20463;-60